Gillette, WY

10:04 PM MDT on September 19, 2014 (GMT -0600)
Gillette-Campbell County | Change Station
CLOSE
Current Station
Airport
Location: Gillette,
Elevation: 4364 ft
Nearby Weather Stations

Elev 4364 ft 44.34 °N, 105.54 °W | Updated 11 minutes ago

Mostly Cloudy
Mostly Cloudy
56 °F
Feels Like 56 °F
N
4
Wind Variable Wind from SSW

Today
High -- | Low -- °F
--% Chance of Precip.
Yesterday
High -- | Low -- °F
Precip. -- in
6:46 AM 7:05 PM
Waning Crescent, 15% visible
Pressure 29.94 in
Visibility 10.0 miles
Clouds Mostly Cloudy 10000 ft
Dew Point 47 °F
Humidity 72%
Rainfall 0.02 in
Snow Depth 0 in , 0 in , 0 in
UV 0 out of 12
Pollen 5.40 out of 12
Air Quality Not available.
Flu Activity Not available.
METAR KGCC 200353Z AUTO 20003KT 10SM BKN100 13/08 A3004 RMK AO2 SLP138 T01330083

More Conditions Fewer Conditions

Pressure 29.94 in
Visibility 10.0 miles
Clouds Mostly Cloudy 10000 ft
Dew Point 47 °F
Humidity 72%
Rainfall 0.02 in
Snow Depth 0 in , 0 in , 0 in
UV 0 out of 12
Pollen 5.40 out of 12
Air Quality Not available.
Flu Activity Not available.
METAR KGCC 200353Z AUTO 20003KT 10SM BKN100 13/08 A3004 RMK AO2 SLP138 T01330083

More Conditions Fewer Conditions

10-Day Weather Forecast

Almanac

Astronomy

Sep. 19, 2014 Rise Set
Actual Time 6:46 AM MDT 7:05 PM MDT
Civil Twilight 6:17 AM MDT 7:34 PM MDT
Nautical Twilight 5:42 AM MDT 8:09 PM MDT
Astronomical Twilight 5:07 AM MDT 8:44 PM MDT
Moon 2:25 AM MDT (9/19) 4:43 PM MDT (9/19)
Length of Visible Light 13h 17m
Length of Day
12h 19m
Tomorrow will be 3m 4s shorter.
Waning Crescent, 15% of the Moon is Illuminated
Sep 20
Waning Crescent
Sep 24
New
Oct 1
First Quarter
Oct 8
Full
Oct 15
Last Quarter

Today's Extremes

State Highs State Lows

Community

WunderPhotos

Upload Photos

1,754,777 photos uploaded!

WunderBlogs® & News

Nearby

Snow Depth

Station Depth Elevation
Bald Mountain 0 in 9380 ft
Cinnabar Park 0 in 9690 ft
Phillips Bench 0 in 8200 ft
Cold Springs 0 in 9630 ft
Salt River Summit 0 in 7600 ft

Earthquake Activity

City Distance Mag. Time & Date
No recent earthquake activity has been reported nearby.
Minimum magnitude displayed is 2.5.

Coastal Water Temperatures

Place Temperature
No Stations Reporting

Nearby Weather Stations